Time;durP1;ratioP1;P1;durP2;ratioP2;P2;SDS_P1;SDS_P2;PMS_P1;PMS_P2;Temp;Humidity;BMP_temperature;BMP_pressure;BME280_temperature;BME280_humidity;BME280_pressure;Samples;Min_cycle;Max_cycle;Signal;HPM_P1;HPM_P2
2023/07/05 00:01:39;;;;;;;6.95;2.10;;;;;;;16.43;71.05;100862.63;7376191;19;19930;-70
2023/07/05 00:04:08;;;;;;;7.72;2.47;;;;;;;16.40;70.15;100844.84;7375800;19;19919;-69
2023/07/05 00:06:37;;;;;;;7.53;2.58;;;;;;;16.39;70.59;100837.78;7377034;19;19922;-69
2023/07/05 00:09:06;;;;;;;4.25;2.10;;;;;;;16.40;70.47;100831.25;7374114;19;20093;-69
2023/07/05 00:11:36;;;;;;;7.32;2.40;;;;;;;16.41;70.79;100826.66;7380243;19;20348;-69
2023/07/05 00:14:04;;;;;;;6.05;2.60;;;;;;;16.38;70.96;100813.50;7372480;19;19926;-70
2023/07/05 00:16:33;;;;;;;4.95;2.95;;;;;;;16.39;71.28;100804.31;7375033;19;19939;-69
2023/07/05 00:19:04;;;;;;;9.38;2.92;;;;;;;16.36;71.66;100813.72;7373560;19;19922;-69
2023/07/05 00:21:32;;;;;;;6.95;2.78;;;;;;;16.33;71.74;100797.84;7372517;19;20738;-70
2023/07/05 00:24:01;;;;;;;6.97;2.70;;;;;;;16.33;71.14;100795.13;7375218;19;20502;-69
2023/07/05 00:26:30;;;;;;;6.40;2.20;;;;;;;16.32;71.43;100804.31;7374004;19;19914;-70
2023/07/05 00:28:58;;;;;;;6.68;2.47;;;;;;;16.33;71.10;100786.97;7370658;19;19926;-70
2023/07/05 00:31:27;;;;;;;7.43;2.55;;;;;;;16.35;70.93;100787.59;7376839;19;19971;-69
2023/07/05 00:33:55;;;;;;;5.95;2.70;;;;;;;16.37;71.26;100771.88;7375687;19;19922;-69
2023/07/05 00:36:27;;;;;;;8.38;2.70;;;;;;;16.36;71.75;100772.94;7375799;19;21490;-69
2023/07/05 00:38:55;;;;;;;7.55;2.53;;;;;;;16.35;71.45;100763.13;7377260;19;19932;-69
2023/07/05 00:41:24;;;;;;;7.35;3.00;;;;;;;16.33;71.78;100757.91;7379558;19;19986;-69
2023/07/05 00:43:53;;;;;;;9.05;2.70;;;;;;;16.32;72.48;100745.34;7377774;19;20101;-70
2023/07/05 00:46:24;;;;;;;8.60;2.58;;;;;;;16.32;71.69;100737.19;7376228;19;19998;-69
2023/07/05 00:48:56;;;;;;;8.65;2.53;;;;;;;16.31;72.09;100732.78;7373189;19;19973;-69
2023/07/05 00:51:32;;;;;;;6.50;2.92;;;;;;;16.29;73.13;100721.31;7370357;19;19919;-69
2023/07/05 00:54:04;;;;;;;8.27;2.92;;;;;;;16.28;72.83;100700.63;7374097;19;19926;-69
2023/07/05 00:56:38;;;;;;;6.93;2.70;;;;;;;16.27;73.99;100679.91;7373428;19;19923;-69
2023/07/05 00:59:10;;;;;;;7.80;3.08;;;;;;;16.29;72.35;100698.75;7372513;19;19939;-69
2023/07/05 01:01:40;;;;;;;8.68;3.38;;;;;;;16.27;73.08;100685.34;7371303;19;19939;-69
2023/07/05 01:04:09;;;;;;;8.27;3.45;;;;;;;16.25;72.54;100682.03;7379573;19;19919;-69
2023/07/05 01:06:40;;;;;;;10.13;3.67;;;;;;;16.21;73.44;100678.09;7375630;19;20009;-69
2023/07/05 01:09:09;;;;;;;6.63;3.20;;;;;;;16.19;72.51;100668.47;7375110;19;19918;-69
2023/07/05 01:11:51;;;;;;;6.95;3.55;;;;;;;16.16;74.28;100663.47;7377801;19;19934;-69
2023/07/05 01:14:29;;;;;;;8.27;3.45;;;;;;;16.13;73.42;100659.31;7372543;19;19926;-69
2023/07/05 01:17:11;;;;;;;8.77;3.17;;;;;;;16.11;73.82;100660.56;7375169;19;19963;-69
2023/07/05 01:20:02;;;;;;;5.30;3.28;;;;;;;16.05;74.32;100645.16;7375058;19;19930;-69
2023/07/05 01:23:01;;;;;;;5.57;3.28;;;;;;;16.06;74.43;100639.50;7373955;19;19914;-69
2023/07/05 01:25:54;;;;;;;5.63;3.22;;;;;;;16.07;74.99;100638.44;7375565;19;19918;-69
2023/07/05 01:28:40;;;;;;;7.95;3.42;;;;;;;16.09;75.03;100640.97;7374682;19;20370;-69
2023/07/05 01:31:38;;;;;;;7.57;3.65;;;;;;;16.06;74.78;100627.78;7374550;19;19997;-69
2023/07/05 01:34:16;;;;;;;8.85;3.42;;;;;;;16.08;73.96;100622.97;7373547;19;19919;-69
2023/07/05 01:36:45;;;;;;;6.75;3.65;;;;;;;16.08;73.27;100612.94;7374063;19;19923;-69
2023/07/05 01:39:14;;;;;;;8.25;3.70;;;;;;;16.07;73.96;100616.72;7374523;19;19924;-69
2023/07/05 01:41:42;;;;;;;10.95;3.63;;;;;;;16.08;73.55;100615.66;7374959;19;19978;-69
2023/07/05 01:44:13;;;;;;;9.57;4.47;;;;;;;16.09;73.93;100603.72;7378737;19;20261;-69
2023/07/05 01:46:50;;;;;;;8.07;3.78;;;;;;;16.07;73.94;100608.56;7372158;19;20408;-69
2023/07/05 01:49:32;;;;;;;10.05;3.95;;;;;;;16.07;74.36;100597.69;7378909;19;19926;-69
2023/07/05 01:52:07;;;;;;;8.77;3.58;;;;;;;16.09;73.65;100600.19;7372250;19;19933;-69
2023/07/05 01:54:43;;;;;;;9.00;3.50;;;;;;;16.10;74.19;100593.69;7372061;19;19950;-69
2023/07/05 01:57:17;;;;;;;11.85;4.13;;;;;;;16.09;74.13;100592.03;7375703;19;19981;-69
2023/07/05 01:59:54;;;;;;;8.57;4.35;;;;;;;16.07;74.78;100585.97;7374004;19;22045;-70
2023/07/05 02:02:30;;;;;;;8.93;4.43;;;;;;;16.00;74.58;100583.31;7375187;19;20360;-69
2023/07/05 02:05:00;;;;;;;8.02;3.50;;;;;;;15.98;74.31;100590.84;7369057;19;19921;-69
2023/07/05 02:07:29;;;;;;;10.75;4.07;;;;;;;15.96;74.91;100582.09;7367764;19;20275;-69
2023/07/05 02:09:58;;;;;;;8.18;4.10;;;;;;;15.96;74.83;100570.41;7372113;19;19990;-70
2023/07/05 02:12:29;;;;;;;9.05;4.20;;;;;;;15.93;75.03;100557.22;7370288;19;19918;-69
2023/07/05 02:14:58;;;;;;;9.00;4.00;;;;;;;15.93;75.34;100552.63;7367525;19;19954;-69
2023/07/05 02:17:29;;;;;;;9.68;4.43;;;;;;;15.91;75.80;100538.44;7373796;19;19930;-69
2023/07/05 02:20:00;;;;;;;9.85;4.55;;;;;;;15.89;75.15;100532.38;7354896;19;19911;-69
2023/07/05 02:22:29;;;;;;;8.68;3.80;;;;;;;15.83;76.02;100514.28;7334208;19;19943;-68
2023/07/05 02:24:57;;;;;;;8.77;4.57;;;;;;;15.79;75.97;100505.69;7334491;19;20465;-69
2023/07/05 02:27:26;;;;;;;8.20;3.67;;;;;;;15.76;76.08;100497.16;7343339;19;19926;-69
2023/07/05 02:29:55;;;;;;;8.75;4.53;;;;;;;15.73;75.92;100482.16;7344860;19;19950;-69
2023/07/05 02:32:23;;;;;;;14.00;4.90;;;;;;;15.70;76.52;100482.59;7366811;19;19922;-69
2023/07/05 02:34:55;;;;;;;12.45;5.30;;;;;;;15.67;76.23;100476.75;7364223;19;19952;-69
2023/07/05 02:37:23;;;;;;;13.35;5.22;;;;;;;15.65;76.71;100458.00;7369810;19;19977;-69
2023/07/05 02:39:56;;;;;;;9.20;4.43;;;;;;;15.63;77.12;100454.66;7372061;19;19922;-69
2023/07/05 02:42:24;;;;;;;11.13;4.88;;;;;;;15.64;76.45;100452.75;7372984;19;20770;-69
2023/07/05 02:44:55;;;;;;;8.75;4.47;;;;;;;15.63;76.37;100432.91;7372869;19;19922;-69
2023/07/05 02:47:24;;;;;;;8.13;4.07;;;;;;;15.63;77.14;100418.50;7372786;19;19943;-69
2023/07/05 02:49:55;;;;;;;8.80;4.63;;;;;;;15.62;77.26;100416.88;7373900;19;19947;-69
2023/07/05 02:52:24;;;;;;;12.45;4.75;;;;;;;15.58;76.75;100408.31;7376264;19;19922;-69
2023/07/05 02:54:52;;;;;;;9.40;5.15;;;;;;;15.56;76.90;100407.72;7375956;19;19946;-69
2023/07/05 02:57:21;;;;;;;8.88;5.00;;;;;;;15.53;76.90;100399.19;7380762;19;20012;-69
2023/07/05 02:59:49;;;;;;;10.13;4.57;;;;;;;15.48;77.32;100388.94;7378877;19;20388;-69
2023/07/05 03:02:18;;;;;;;9.48;4.55;;;;;;;15.48;77.61;100382.69;7378488;19;19922;-69
2023/07/05 03:04:49;;;;;;;8.45;4.68;;;;;;;15.47;78.13;100364.72;7376985;19;19965;-70
2023/07/05 03:07:20;;;;;;;9.10;4.93;;;;;;;15.44;78.08;100364.09;7375830;19;19922;-70
2023/07/05 03:09:49;;;;;;;12.48;4.55;;;;;;;15.41;77.75;100359.13;7380224;19;19931;-69
2023/07/05 03:12:20;;;;;;;11.23;4.85;;;;;;;15.39;77.81;100344.97;7377913;19;20639;-69
2023/07/05 03:14:49;;;;;;;9.82;5.00;;;;;;;15.41;78.42;100339.28;7375240;19;19915;-69
2023/07/05 03:17:17;;;;;;;8.68;4.72;;;;;;;15.41;78.41;100331.97;7378081;19;20946;-70
2023/07/05 03:19:46;;;;;;;12.32;5.32;;;;;;;15.43;78.03;100326.34;7377129;19;19942;-69
2023/07/05 03:22:14;;;;;;;11.95;5.05;;;;;;;15.42;78.63;100302.97;7377568;19;19923;-69
2023/07/05 03:24:46;;;;;;;8.88;4.95;;;;;;;15.36;79.20;100310.09;7374942;19;19951;-70
2023/07/05 03:27:14;;;;;;;7.55;5.05;;;;;;;15.38;78.41;100304.47;7380250;19;19943;-70
2023/07/05 03:29:43;;;;;;;10.88;4.85;;;;;;;15.37;79.26;100302.78;7375676;19;20000;-70
2023/07/05 03:32:11;;;;;;;8.75;4.93;;;;;;;15.37;78.78;100292.75;7376134;19;19938;-71
2023/07/05 03:34:40;;;;;;;11.88;5.00;;;;;;;15.34;79.03;100297.81;7375064;19;19926;-70
2023/07/05 03:37:09;;;;;;;11.45;5.40;;;;;;;15.31;79.21;100293.66;7378930;19;19915;-70
2023/07/05 03:39:37;;;;;;;12.55;5.18;;;;;;;15.27;78.78;100264.47;7377214;19;19977;-70
2023/07/05 03:42:09;;;;;;;11.57;4.75;;;;;;;15.27;79.84;100269.91;7375395;19;19989;-70
2023/07/05 03:44:37;;;;;;;10.23;4.78;;;;;;;15.27;79.53;100267.19;7376099;19;19922;-70
2023/07/05 03:47:07;;;;;;;12.02;5.22;;;;;;;15.24;79.75;100240.47;7378640;19;20285;-70
2023/07/05 03:49:36;;;;;;;7.72;5.15;;;;;;;15.23;79.81;100255.94;7377584;19;21128;-70
2023/07/05 03:52:04;;;;;;;11.23;5.93;;;;;;;15.23;79.55;100244.28;7375712;19;19923;-70
2023/07/05 03:54:33;;;;;;;8.45;4.60;;;;;;;15.20;79.64;100259.09;7378231;19;19939;-71
2023/07/05 03:57:02;;;;;;;9.40;5.03;;;;;;;15.21;79.90;100257.22;7375497;19;19920;-70
2023/07/05 03:59:33;;;;;;;6.75;4.57;;;;;;;15.23;80.29;100260.56;7378982;19;20040;-70
2023/07/05 04:02:01;;;;;;;11.50;5.80;;;;;;;15.24;79.27;100235.88;7372963;19;20626;-71
2023/07/05 04:04:30;;;;;;;7.07;4.70;;;;;;;15.27;79.56;100237.34;7376388;19;19956;-71
2023/07/05 04:06:59;;;;;;;9.00;4.15;;;;;;;15.31;79.54;100233.13;7376631;19;19923;-70
2023/07/05 04:09:28;;;;;;;11.70;4.78;;;;;;;15.30;79.76;100229.59;7376668;19;19937;-70
2023/07/05 04:11:57;;;;;;;10.77;5.10;;;;;;;15.30;79.78;100223.31;7377746;19;19954;-70
2023/07/05 04:14:25;;;;;;;8.63;4.82;;;;;;;15.29;79.79;100219.78;7375383;19;19923;-70
2023/07/05 04:16:58;;;;;;;8.15;4.32;;;;;;;15.27;80.40;100208.28;7377953;19;19934;-70
2023/07/05 04:19:27;;;;;;;10.02;5.38;;;;;;;15.31;80.40;100204.13;7376715;19;19922;-70
2023/07/05 04:21:55;;;;;;;7.03;4.47;;;;;;;15.31;80.75;100203.28;7373737;19;19922;-70
2023/07/05 04:24:24;;;;;;;7.40;4.45;;;;;;;15.29;81.34;100205.38;7374049;19;19930;-70
2023/07/05 04:26:53;;;;;;;9.80;5.53;;;;;;;15.30;80.81;100185.31;7378156;19;19918;-70
2023/07/05 04:29:21;;;;;;;11.02;4.32;;;;;;;15.31;80.93;100195.13;7372978;19;19914;-70
2023/07/05 04:31:50;;;;;;;9.60;4.60;;;;;;;15.29;81.58;100194.53;7373663;19;20642;-70
2023/07/05 04:34:21;;;;;;;7.82;4.88;;;;;;;15.30;82.08;100201.63;7375166;19;19965;-70
2023/07/05 04:36:49;;;;;;;6.95;4.25;;;;;;;15.29;81.56;100208.91;7377150;19;19922;-70
2023/07/05 04:39:18;;;;;;;9.43;4.53;;;;;;;15.29;81.46;100225.19;7375755;19;20399;-70
2023/07/05 04:41:46;;;;;;;9.45;4.97;;;;;;;15.29;81.80;100225.19;7374326;19;20419;-71
2023/07/05 04:44:15;;;;;;;9.63;4.82;;;;;;;15.30;81.96;100218.72;7373269;19;19925;-70
2023/07/05 04:46:44;;;;;;;8.45;4.40;;;;;;;15.30;82.21;100243.16;7377349;19;19947;-70
2023/07/05 04:49:12;;;;;;;9.63;4.70;;;;;;;15.35;82.79;100237.91;7377628;19;20376;-69
2023/07/05 04:51:43;;;;;;;7.43;4.20;;;;;;;15.42;82.89;100227.78;7376309;19;19922;-70
2023/07/05 04:54:12;;;;;;;8.85;4.15;;;;;;;15.48;82.28;100225.25;7372897;19;19943;-69
2023/07/05 04:56:41;;;;;;;6.25;3.60;;;;;;;15.53;81.62;100228.97;7376704;19;19928;-70
2023/07/05 04:59:10;;;;;;;7.35;3.95;;;;;;;15.58;81.67;100217.41;7377081;19;21106;-69
2023/07/05 05:01:40;;;;;;;7.43;4.03;;;;;;;15.62;81.59;100232.22;7369241;19;19930;-69
2023/07/05 05:04:09;;;;;;;8.63;4.53;;;;;;;15.65;82.11;100223.63;7372221;19;19922;-69
2023/07/05 05:06:37;;;;;;;7.70;4.00;;;;;;;15.66;81.31;100233.44;7373123;19;19926;-70
2023/07/05 05:09:09;;;;;;;6.75;4.05;;;;;;;15.68;81.57;100215.00;7371284;19;19967;-70
2023/07/05 05:11:37;;;;;;;7.78;3.58;;;;;;;15.68;81.45;100209.59;7375221;19;19926;-70
2023/07/05 05:14:06;;;;;;;6.50;3.50;;;;;;;15.67;80.96;100213.34;7372839;19;19994;-69
2023/07/05 05:16:34;;;;;;;8.95;3.80;;;;;;;15.68;81.13;100215.84;7376013;19;20539;-70
2023/07/05 05:19:04;;;;;;;6.72;2.95;;;;;;;15.69;81.13;100213.97;7375866;19;20237;-69
2023/07/05 05:21:32;;;;;;;4.97;2.92;;;;;;;15.68;80.68;100205.00;7375498;19;20348;-70
2023/07/05 05:24:01;;;;;;;6.15;2.80;;;;;;;15.68;79.64;100215.00;7375259;19;19930;-69
2023/07/05 05:26:33;;;;;;;4.25;2.35;;;;;;;15.65;79.18;100234.50;7374325;19;19983;-70
2023/07/05 05:29:01;;;;;;;5.07;2.47;;;;;;;15.65;79.06;100238.03;7374152;19;20289;-70
2023/07/05 05:31:30;;;;;;;5.13;2.33;;;;;;;15.62;78.31;100240.38;7373495;19;19982;-70
2023/07/05 05:33:58;;;;;;;7.10;3.45;;;;;;;15.58;78.15;100255.44;7375950;19;19930;-69
2023/07/05 05:36:27;;;;;;;3.40;2.05;;;;;;;15.54;78.07;100240.66;7375083;19;20485;-69
2023/07/05 05:38:56;;;;;;;3.63;2.10;;;;;;;15.54;77.42;100235.22;7373350;19;19992;-70
2023/07/05 05:41:24;;;;;;;5.00;2.53;;;;;;;15.48;77.66;100249.66;7370281;19;19914;-70
2023/07/05 05:43:56;;;;;;;4.10;2.25;;;;;;;15.41;77.44;100247.00;7369929;19;19933;-70
2023/07/05 05:46:24;;;;;;;4.65;2.25;;;;;;;15.36;77.29;100253.09;7373068;19;19922;-69
2023/07/05 05:48:53;;;;;;;3.92;2.10;;;;;;;15.29;75.84;100255.06;7370067;19;19919;-70
2023/07/05 05:51:22;;;;;;;5.95;2.35;;;;;;;15.22;75.58;100246.16;7373848;19;19954;-69
2023/07/05 05:53:50;;;;;;;4.40;2.45;;;;;;;15.14;75.40;100238.31;7375518;19;19919;-69
2023/07/05 05:56:19;;;;;;;3.60;2.22;;;;;;;15.08;75.22;100243.75;7373861;19;19926;-70
2023/07/05 05:58:48;;;;;;;5.07;2.65;;;;;;;15.03;75.25;100254.44;7374190;19;19947;-70
2023/07/05 06:01:20;;;;;;;4.72;2.28;;;;;;;14.94;75.34;100234.91;7372888;19;20006;-69
2023/07/05 06:03:48;;;;;;;4.63;2.00;;;;;;;14.89;74.99;100251.84;7371387;19;19918;-69
2023/07/05 06:06:17;;;;;;;5.47;2.47;;;;;;;14.83;75.21;100246.47;7368499;19;19958;-70
2023/07/05 06:08:45;;;;;;;4.22;2.20;;;;;;;14.80;75.05;100249.59;7382330;19;19942;-72
2023/07/05 06:11:14;;;;;;;4.78;2.40;;;;;;;14.79;75.24;100251.50;7391183;19;19978;-71
2023/07/05 06:13:42;;;;;;;3.70;2.50;;;;;;;14.83;74.97;100262.75;7392653;19;20276;-71
2023/07/05 06:16:11;;;;;;;5.22;2.25;;;;;;;14.93;74.10;100265.78;7392989;19;20312;-72
2023/07/05 06:18:42;;;;;;;12.60;3.08;;;;;;;15.02;74.08;100253.59;7377136;19;19986;-71
2023/07/05 06:21:12;;;;;;;3.80;2.60;;;;;;;15.07;73.25;100253.78;7369597;19;19918;-69
2023/07/05 06:23:41;;;;;;;4.18;2.35;;;;;;;15.13;73.02;100252.91;7367631;19;19922;-70
2023/07/05 06:26:11;;;;;;;3.95;2.38;;;;;;;15.16;72.43;100252.47;7370529;19;19956;-69
2023/07/05 06:28:40;;;;;;;4.07;1.98;;;;;;;15.24;72.32;100257.59;7377532;19;19919;-70
2023/07/05 06:31:10;;;;;;;3.65;1.95;;;;;;;15.27;71.90;100248.19;7378711;19;19927;-70
2023/07/05 06:33:38;;;;;;;4.45;2.00;;;;;;;15.30;71.83;100236.91;7377532;19;19915;-70
2023/07/05 06:36:11;;;;;;;3.90;2.20;;;;;;;15.32;71.18;100238.31;7378361;19;19929;-70
2023/07/05 06:38:40;;;;;;;3.97;2.15;;;;;;;15.32;70.16;100229.34;7377704;19;19918;-70
2023/07/05 06:41:09;;;;;;;4.75;2.00;;;;;;;15.33;70.62;100223.69;7377427;19;20360;-70
2023/07/05 06:43:37;;;;;;;4.97;1.77;;;;;;;15.29;70.87;100227.09;7379574;19;19922;-70
2023/07/05 06:46:06;;;;;;;3.53;1.67;;;;;;;15.23;70.32;100209.81;7374773;19;19958;-70
2023/07/05 06:48:35;;;;;;;7.20;2.13;;;;;;;15.20;70.45;100201.28;7376046;19;19978;-70
2023/07/05 06:51:03;;;;;;;5.60;1.92;;;;;;;15.19;70.80;100195.03;7377247;19;19922;-70
2023/07/05 06:53:34;;;;;;;4.18;2.05;;;;;;;15.18;69.12;100201.53;7376074;19;19922;-70
2023/07/05 06:56:03;;;;;;;4.38;1.58;;;;;;;15.19;70.53;100200.44;7375616;19;19936;-72
2023/07/05 06:58:32;;;;;;;4.38;1.88;;;;;;;15.29;70.44;100217.06;7377771;19;19930;-70
2023/07/05 07:01:02;;;;;;;5.25;2.00;;;;;;;15.47;70.04;100229.00;7375468;19;19926;-70
2023/07/05 07:03:31;;;;;;;5.75;2.10;;;;;;;15.52;69.41;100193.91;7374364;19;19926;-70
2023/07/05 07:06:00;;;;;;;5.30;2.00;;;;;;;15.53;70.01;100217.28;7377194;19;19985;-70
2023/07/05 07:08:38;;;;;;;5.97;2.17;;;;;;;15.60;69.09;100191.72;7379169;19;19918;-70
2023/07/05 07:11:07;;;;;;;;;;;;;;;15.61;68.49;100198.81;7380537;19;19926;-70
2023/07/05 07:13:36;;;;;;;3.25;1.63;;;;;;;15.79;68.83;100200.69;7380427;19;19930;-70
2023/07/05 07:16:07;;;;;;;8.43;2.25;;;;;;;15.87;68.77;100184.09;7375794;19;20356;-70
2023/07/05 07:18:37;;;;;;;4.43;1.85;;;;;;;15.89;68.00;100184.69;7376589;19;19956;-70
2023/07/05 07:21:08;;;;;;;3.13;2.20;;;;;;;15.88;67.79;100180.28;7377572;19;19918;-70
2023/07/05 07:23:41;;;;;;;6.07;2.00;;;;;;;15.91;67.19;100171.72;7379136;19;19926;-70
2023/07/05 07:26:16;;;;;;;5.50;2.20;;;;;;;15.96;66.46;100171.03;7377947;19;19972;-70
2023/07/05 07:28:48;;;;;;;4.13;2.17;;;;;;;16.07;66.96;100164.81;7376423;19;20459;-70
2023/07/05 07:31:20;;;;;;;4.75;1.60;;;;;;;16.08;66.03;100164.59;7376819;19;20336;-70
2023/07/05 07:33:49;;;;;;;4.10;2.20;;;;;;;16.14;66.11;100166.34;7379497;19;19930;-70
2023/07/05 07:36:20;;;;;;;5.72;1.80;;;;;;;16.16;66.63;100164.25;7375663;19;20366;-70
2023/07/05 07:38:52;;;;;;;5.43;1.90;;;;;;;16.14;65.21;100166.34;7377752;19;19926;-70
2023/07/05 07:41:22;;;;;;;5.72;2.40;;;;;;;16.11;66.27;100155.97;7377953;19;19922;-70
2023/07/05 07:43:52;;;;;;;2.53;1.65;;;;;;;16.06;66.34;100163.13;7379154;19;19930;-70
2023/07/05 07:46:23;;;;;;;4.20;2.10;;;;;;;15.95;66.53;100162.03;7376863;19;19934;-71
2023/07/05 07:48:53;;;;;;;4.50;1.92;;;;;;;15.85;67.06;100172.59;7378395;19;19946;-70
2023/07/05 07:51:24;;;;;;;4.90;1.90;;;;;;;15.64;67.24;100159.50;7379550;19;19934;-70
2023/07/05 07:53:55;;;;;;;10.85;4.57;;;;;;;15.51;68.94;100159.66;7378054;19;19922;-70
2023/07/05 07:56:26;;;;;;;5.70;1.85;;;;;;;15.39;68.95;100160.38;7379626;19;20311;-70
2023/07/05 07:58:58;;;;;;;5.35;1.98;;;;;;;15.36;69.17;100141.00;7379123;19;19918;-70
2023/07/05 08:01:28;;;;;;;3.15;1.73;;;;;;;15.38;69.11;100142.44;7378487;19;20318;-70
2023/07/05 08:04:00;;;;;;;5.13;2.10;;;;;;;15.59;68.05;100122.16;7379621;19;20387;-71
2023/07/05 08:06:33;;;;;;;;;;;;;;;15.71;67.66;100112.19;7380381;19;19915;-70
2023/07/05 08:09:06;;;;;;;4.75;1.83;;;;;;;15.86;66.49;100112.63;7376024;19;20338;-70
2023/07/05 08:11:34;;;;;;;9.32;2.03;;;;;;;15.81;66.85;100123.34;7377209;19;21817;-70
2023/07/05 08:14:03;;;;;;;6.80;1.73;;;;;;;15.70;67.86;100115.16;7378133;19;20699;-70
2023/07/05 08:16:31;;;;;;;3.65;1.58;;;;;;;15.53;68.71;100105.97;7375659;19;19922;-70
2023/07/05 08:19:00;;;;;;;3.65;1.50;;;;;;;15.25;69.94;100115.44;7375996;19;19914;-70
2023/07/05 08:21:29;;;;;;;2.55;1.50;;;;;;;15.07;70.73;100103.75;7376884;19;19922;-70
2023/07/05 08:23:59;;;;;;;5.85;1.83;;;;;;;14.81;73.52;100159.06;7375468;19;19938;-70
2023/07/05 08:26:30;;;;;;;4.65;1.67;;;;;;;14.47;75.69;100150.38;7374618;19;19919;-70
2023/07/05 08:28:59;;;;;;;;;;;;;;;14.15;73.14;100150.59;7378957;19;20340;-70
2023/07/05 08:31:28;;;;;;;2.03;1.00;;;;;;;14.14;72.15;100132.66;7376325;19;20013;-70
2023/07/05 08:33:56;;;;;;;1.52;0.90;;;;;;;14.04;73.21;100127.72;7378341;19;19930;-70
2023/07/05 08:36:35;;;;;;;2.13;0.93;;;;;;;13.96;73.14;100125.28;7375288;19;19918;-70
2023/07/05 08:39:05;;;;;;;1.08;0.55;;;;;;;14.08;72.89;100101.84;7377136;19;19946;-70
2023/07/05 08:42:00;;;;;;;0.77;0.40;;;;;;;14.13;72.80;100093.06;7377292;19;20340;-69
2023/07/05 08:44:45;;;;;;;1.63;0.60;;;;;;;14.20;72.50;100086.56;7376875;19;19994;-71
2023/07/05 08:47:22;;;;;;;2.58;0.80;;;;;;;14.15;73.20;100072.03;7376920;19;20005;-70
2023/07/05 08:49:53;;;;;;;;;;;;;;;13.99;72.62;100074.19;7379881;19;20985;-71
2023/07/05 08:52:26;;;;;;;0.70;0.40;;;;;;;14.03;70.36;100069.16;7376614;19;20376;-71
2023/07/05 08:55:01;;;;;;;1.85;0.60;;;;;;;13.89;71.48;100081.16;7375253;19;19919;-70
2023/07/05 08:57:36;;;;;;;1.65;0.35;;;;;;;13.74;73.32;100037.31;7377822;19;19942;-71
2023/07/05 09:00:11;;;;;;;1.63;0.40;;;;;;;13.63;72.73;100019.88;7376160;19;19919;-70
2023/07/05 09:02:40;;;;;;;0.55;0.38;;;;;;;13.54;73.20;100024.72;7376937;19;19930;-70
2023/07/05 09:05:16;;;;;;;0.65;0.30;;;;;;;13.43;73.98;99982.09;7376228;19;19957;-70
2023/07/05 09:07:58;;;;;;;1.33;0.50;;;;;;;13.42;74.64;99969.63;7377601;19;19950;-70
2023/07/05 09:10:34;;;;;;;2.13;0.50;;;;;;;13.41;74.69;99981.50;7373265;19;19926;-71
2023/07/05 09:13:17;;;;;;;1.10;0.32;;;;;;;13.39;74.48;99986.28;7380078;19;20559;-70
2023/07/05 09:15:51;;;;;;;4.30;0.60;;;;;;;13.34;74.00;99917.66;7354055;19;19950;-69
2023/07/05 09:18:32;;;;;;;0.70;0.40;;;;;;;13.36;73.99;99927.22;7343818;19;19930;-71
2023/07/05 09:21:10;;;;;;;1.15;0.40;;;;;;;13.32;73.89;99915.19;7343198;19;19942;-70
2023/07/05 09:23:43;;;;;;;1.48;0.43;;;;;;;13.35;74.47;99903.09;7368014;19;19929;-71
2023/07/05 09:26:24;;;;;;;2.05;0.57;;;;;;;13.28;74.31;99903.13;7348552;19;19914;-70
2023/07/05 09:29:06;;;;;;;2.33;0.50;;;;;;;13.18;75.65;99898.19;7343587;19;19922;-70
2023/07/05 09:31:37;;;;;;;1.40;0.70;;;;;;;13.07;75.72;99882.63;7368553;19;19918;-70
2023/07/05 09:34:19;;;;;;;0.90;0.43;;;;;;;12.96;76.96;99877.09;7370357;19;20145;-70
2023/07/05 09:36:51;;;;;;;0.98;0.60;;;;;;;12.89;77.03;99844.69;7371500;19;20002;-69
2023/07/05 09:39:30;;;;;;;0.90;0.50;;;;;;;12.83;77.81;99820.38;7375775;19;19926;-70
2023/07/05 09:42:02;;;;;;;6.30;0.85;;;;;;;12.80;78.05;99878.44;7374965;19;19925;-70
2023/07/05 09:44:34;;;;;;;1.42;0.50;;;;;;;12.85;77.80;99862.38;7378387;19;19919;-70
2023/07/05 09:47:02;;;;;;;3.33;0.75;;;;;;;12.85;78.04;99875.91;7378054;19;19918;-69
2023/07/05 09:49:31;;;;;;;3.33;0.70;;;;;;;12.87;78.16;99851.34;7375308;19;20616;-70
2023/07/05 09:52:01;;;;;;;1.80;0.55;;;;;;;12.93;77.74;99843.22;7375925;19;20387;-70
2023/07/05 09:54:33;;;;;;;1.10;0.55;;;;;;;12.88;78.38;99834.09;7376533;19;19918;-70
2023/07/05 09:57:04;;;;;;;1.42;0.60;;;;;;;12.84;78.85;99832.88;7371158;19;19986;-70
2023/07/05 10:10:14;;;;;;;3.10;0.75;;;;;;;12.77;80.06;99832.09;7389183;19;19931;-71
2023/07/05 10:12:46;;;;;;;1.80;0.80;;;;;;;12.84;78.75;99835.56;7377924;19;19922;-74
2023/07/05 10:47:34;;;;;;;6.80;1.17;;;;;;;13.96;77.42;99955.50;7349121;19;19922;-82
2023/07/05 10:50:07;;;;;;;3.95;0.70;;;;;;;14.03;78.00;99941.88;7392228;19;19952;-82
2023/07/05 10:52:38;;;;;;;2.45;0.85;;;;;;;14.12;77.52;99945.97;7394381;19;20347;-83
2023/07/05 10:55:14;;;;;;;4.60;0.73;;;;;;;14.29;77.18;99979.56;7400205;19;19957;-84
2023/07/05 10:57:47;;;;;;;7.18;1.13;;;;;;;14.39;76.24;99987.22;7394831;19;19919;-86
2023/07/05 11:00:28;;;;;;;5.00;1.15;;;;;;;14.47;76.63;100017.59;7406547;19;19911;-87
2023/07/05 11:03:06;;;;;;;2.15;0.60;;;;;;;14.55;76.38;99994.78;7402720;19;19918;-83
2023/07/05 11:05:41;;;;;;;2.70;0.98;;;;;;;14.62;75.79;100040.81;7403493;19;20232;-87
2023/07/05 11:08:17;;;;;;;3.70;0.80;;;;;;;14.67;76.05;100022.00;7407153;19;19932;-85
2023/07/05 11:10:47;;;;;;;2.63;0.90;;;;;;;14.74;75.92;100022.75;7403929;19;19922;-87
2023/07/05 11:13:17;;;;;;;3.47;1.20;;;;;;;14.78;75.73;100035.63;7400809;19;19938;-84
2023/07/05 11:15:47;;;;;;;2.10;0.90;;;;;;;14.86;75.95;100059.72;7396025;19;20322;-80
2023/07/05 11:18:21;;;;;;;5.93;0.90;;;;;;;14.93;75.05;100071.34;7392087;19;19966;-84
2023/07/05 11:20:55;;;;;;;3.40;0.90;;;;;;;14.94;75.64;100070.28;7383604;19;19923;-77
2023/07/05 11:23:53;;;;;;;2.92;0.98;;;;;;;15.00;75.16;100141.81;7390391;19;20552;-75
2023/07/05 11:26:34;;;;;;;3.42;1.02;;;;;;;15.07;75.31;100098.31;7395641;19;19954;-88
2023/07/05 11:29:24;;;;;;;4.75;1.02;;;;;;;15.18;74.72;100100.31;7398395;19;19925;-87
2023/07/05 11:32:01;;;;;;;4.07;0.93;;;;;;;15.24;74.37;100104.81;7404040;19;19918;-87
2023/07/05 11:34:42;;;;;;;;;;;;;;;15.34;74.64;100119.53;7401244;19;19937;-89
2023/07/05 11:37:42;;;;;;;6.30;1.05;;;;;;;15.33;74.46;100142.28;7400054;19;19934;-90
2023/07/05 11:40:40;;;;;;;6.22;1.73;;;;;;;15.34;74.81;100137.69;7395275;19;19965;-90
2023/07/05 11:43:27;;;;;;;4.57;1.02;;;;;;;15.51;73.29;100187.63;7403780;19;19962;-89
2023/07/05 11:45:56;;;;;;;4.50;0.90;;;;;;;15.64;73.81;100154.91;7401645;19;19919;-87
2023/07/05 11:48:51;;;;;;;4.97;1.08;;;;;;;15.77;73.19;100184.63;7393327;19;20022;-88
2023/07/05 11:51:32;;;;;;;4.75;0.90;;;;;;;15.82;72.76;100164.94;7401547;19;19951;-89
2023/07/05 11:54:03;;;;;;;2.58;0.70;;;;;;;15.86;72.62;100179.72;7391630;19;19937;-86
2023/07/05 11:56:34;;;;;;;5.47;1.27;;;;;;;15.88;72.47;100183.00;7392781;19;19940;-88
2023/07/05 11:59:06;;;;;;;2.60;1.10;;;;;;;15.96;72.10;100187.31;7391569;19;19953;-87
2023/07/05 12:01:41;;;;;;;3.28;0.80;;;;;;;15.93;71.90;100209.50;7397382;19;19951;-87
2023/07/05 12:04:23;;;;;;;2.85;0.57;;;;;;;15.66;72.68;100212.50;7398017;19;19922;-88
2023/07/05 12:06:55;;;;;;;2.05;0.47;;;;;;;15.49;72.53;100241.28;7396776;19;19926;-87
2023/07/05 12:09:32;;;;;;;3.28;0.70;;;;;;;15.33;72.49;100253.56;7386496;19;19926;-86
2023/07/05 12:12:03;;;;;;;3.55;1.00;;;;;;;15.25;73.17;100251.13;7392249;19;20042;-88
2023/07/05 12:14:32;;;;;;;8.55;0.93;;;;;;;15.11;73.20;100257.72;7390986;19;20039;-87
2023/07/05 12:17:01;;;;;;;5.15;0.98;;;;;;;15.00;73.60;100282.84;7393052;19;20391;-86
2023/07/05 12:19:32;;;;;;;2.22;0.60;;;;;;;14.96;73.84;100273.50;7388627;19;19951;-87
2023/07/05 12:22:06;;;;;;;2.22;0.68;;;;;;;14.99;73.92;100276.59;7394768;19;19925;-86
2023/07/05 12:24:40;;;;;;;2.28;0.70;;;;;;;15.01;74.27;100289.94;7397657;19;20182;-87
2023/07/05 12:27:22;;;;;;;4.45;0.77;;;;;;;15.11;74.20;100274.00;7402262;19;19922;-87
2023/07/05 12:29:52;;;;;;;1.65;0.77;;;;;;;15.13;74.05;100271.06;7400290;19;20577;-86
2023/07/05 12:32:24;;;;;;;2.03;0.80;;;;;;;15.14;74.84;100289.84;7397031;19;19918;-87